sensor_id;sensor_type;location;lat;lon;timestamp;pressure;altitude;pressure_sealevel;temperature;humidity
13241;BME280;6687;47.790;7.322;2023-02-01T06:12:05;99989.53;;;5.32;88.41
13241;BME280;6687;47.790;7.322;2023-02-01T06:14:32;99985.84;;;5.26;87.48
13241;BME280;6687;47.790;7.322;2023-02-01T06:16:59;99982.19;;;5.21;87.63
13241;BME280;6687;47.790;7.322;2023-02-01T06:19:26;99993.09;;;5.15;87.80
13241;BME280;6687;47.790;7.322;2023-02-01T06:21:52;99998.94;;;5.11;87.60
13241;BME280;6687;47.790;7.322;2023-02-01T06:24:19;100002.25;;;5.29;87.24
13241;BME280;6687;47.790;7.322;2023-02-01T06:26:46;100006.25;;;5.44;86.34
13241;BME280;6687;47.790;7.322;2023-02-01T06:29:14;100004.47;;;5.43;86.50
13241;BME280;6687;47.790;7.322;2023-02-01T06:31:41;100007.53;;;5.55;85.80
13241;BME280;6687;47.790;7.322;2023-02-01T06:34:09;100016.75;;;5.50;85.66
13241;BME280;6687;47.790;7.322;2023-02-01T06:36:36;100009.28;;;5.56;85.00
13241;BME280;6687;47.790;7.322;2023-02-01T06:39:03;100008.53;;;5.58;84.43
13241;BME280;6687;47.790;7.322;2023-02-01T06:41:30;100000.53;;;5.73;84.33
13241;BME280;6687;47.790;7.322;2023-02-01T06:43:56;100001.47;;;5.75;83.52
13241;BME280;6687;47.790;7.322;2023-02-01T06:46:25;100001.34;;;5.72;83.89
13241;BME280;6687;47.790;7.322;2023-02-01T06:48:51;100010.72;;;5.93;82.75
13241;BME280;6687;47.790;7.322;2023-02-01T06:51:21;100020.47;;;5.79;83.00
13241;BME280;6687;47.790;7.322;2023-02-01T06:53:48;100022.28;;;5.59;84.60
13241;BME280;6687;47.790;7.322;2023-02-01T06:56:14;100025.03;;;5.43;84.82
13241;BME280;6687;47.790;7.322;2023-02-01T06:58:41;100023.78;;;5.54;85.05
13241;BME280;6687;47.790;7.322;2023-02-01T07:01:09;100032.75;;;5.43;85.17
13241;BME280;6687;47.790;7.322;2023-02-01T07:03:38;100037.22;;;5.92;83.31
13241;BME280;6687;47.790;7.322;2023-02-01T07:06:05;100032.94;;;5.92;82.60
13241;BME280;6687;47.790;7.322;2023-02-01T07:08:34;100042.00;;;5.83;82.98
13241;BME280;6687;47.790;7.322;2023-02-01T07:11:04;100049.16;;;5.90;82.98
13241;BME280;6687;47.790;7.322;2023-02-01T07:13:31;100047.16;;;5.83;83.41
13241;BME280;6687;47.790;7.322;2023-02-01T07:15:59;100047.59;;;5.93;82.71
13241;BME280;6687;47.790;7.322;2023-02-01T07:18:27;100049.16;;;5.90;82.84
13241;BME280;6687;47.790;7.322;2023-02-01T07:20:56;100047.91;;;6.01;81.93
13241;BME280;6687;47.790;7.322;2023-02-01T07:23:23;100054.44;;;6.15;81.68
13241;BME280;6687;47.790;7.322;2023-02-01T07:25:53;100050.00;;;6.11;81.28
13241;BME280;6687;47.790;7.322;2023-02-01T07:28:20;100043.22;;;6.13;81.34
13241;BME280;6687;47.790;7.322;2023-02-01T07:30:46;100040.75;;;6.16;81.06
13241;BME280;6687;47.790;7.322;2023-02-01T07:33:17;100046.41;;;6.30;80.55
13241;BME280;6687;47.790;7.322;2023-02-01T07:35:44;100041.56;;;6.15;80.64
13241;BME280;6687;47.790;7.322;2023-02-01T07:38:12;100035.34;;;6.33;79.81
13241;BME280;6687;47.790;7.322;2023-02-01T07:40:39;100046.16;;;6.47;79.32
13241;BME280;6687;47.790;7.322;2023-02-01T07:43:06;100047.16;;;6.52;79.01
13241;BME280;6687;47.790;7.322;2023-02-01T07:45:33;100048.22;;;6.57;78.94
13241;BME280;6687;47.790;7.322;2023-02-01T07:48:01;100045.38;;;6.49;79.21
13241;BME280;6687;47.790;7.322;2023-02-01T07:50:28;100046.06;;;6.69;78.20
13241;BME280;6687;47.790;7.322;2023-02-01T07:52:55;100048.66;;;6.69;78.11
13241;BME280;6687;47.790;7.322;2023-02-01T07:55:23;100040.16;;;6.72;78.23
13241;BME280;6687;47.790;7.322;2023-02-01T07:57:50;100044.63;;;6.77;77.94
13241;BME280;6687;47.790;7.322;2023-02-01T08:00:18;100046.72;;;6.64;78.66
13241;BME280;6687;47.790;7.322;2023-02-01T08:03:03;100042.22;;;6.82;77.62
13241;BME280;6687;47.790;7.322;2023-02-01T08:05:30;100033.56;;;6.80;77.59
13241;BME280;6687;47.790;7.322;2023-02-01T08:07:57;100037.38;;;6.91;77.22
13241;BME280;6687;47.790;7.322;2023-02-01T08:10:26;100049.47;;;6.92;77.19
13241;BME280;6687;47.790;7.322;2023-02-01T08:12:58;100042.69;;;6.96;76.94
13241;BME280;6687;47.790;7.322;2023-02-01T08:15:25;100047.69;;;6.91;77.33
13241;BME280;6687;47.790;7.322;2023-02-01T08:17:52;100048.22;;;7.07;76.28
13241;BME280;6687;47.790;7.322;2023-02-01T08:20:19;100041.56;;;6.88;77.03
13241;BME280;6687;47.790;7.322;2023-02-01T08:22:47;100036.81;;;7.00;76.96
13241;BME280;6687;47.790;7.322;2023-02-01T08:25:14;100038.91;;;7.10;76.52
13241;BME280;6687;47.790;7.322;2023-02-01T08:27:43;100043.81;;;7.04;76.36
13241;BME280;6687;47.790;7.322;2023-02-01T08:30:10;100028.28;;;7.01;77.28
13241;BME280;6687;47.790;7.322;2023-02-01T08:32:38;100036.06;;;7.03;76.95
13241;BME280;6687;47.790;7.322;2023-02-01T08:35:05;100029.44;;;7.11;76.96
13241;BME280;6687;47.790;7.322;2023-02-01T08:37:32;100027.81;;;7.13;76.76
13241;BME280;6687;47.790;7.322;2023-02-01T08:39:58;100031.31;;;7.15;76.30
13241;BME280;6687;47.790;7.322;2023-02-01T08:42:25;100032.28;;;7.19;76.69
13241;BME280;6687;47.790;7.322;2023-02-01T08:45:11;100041.63;;;7.15;77.14
13241;BME280;6687;47.790;7.322;2023-02-01T08:47:38;100036.34;;;7.12;77.31
13241;BME280;6687;47.790;7.322;2023-02-01T08:50:06;100044.06;;;7.12;77.53
13241;BME280;6687;47.790;7.322;2023-02-01T08:52:34;100037.25;;;7.12;77.80
13241;BME280;6687;47.790;7.322;2023-02-01T08:55:00;100047.91;;;6.97;77.61
13241;BME280;6687;47.790;7.322;2023-02-01T08:57:27;100046.38;;;7.03;78.32
13241;BME280;6687;47.790;7.322;2023-02-01T08:59:54;100050.47;;;7.23;77.53
13241;BME280;6687;47.790;7.322;2023-02-01T09:02:22;100067.06;;;7.31;76.67
13241;BME280;6687;47.790;7.322;2023-02-01T09:04:49;100059.97;;;7.24;77.17
13241;BME280;6687;47.790;7.322;2023-02-01T09:07:15;100060.91;;;7.26;76.62
13241;BME280;6687;47.790;7.322;2023-02-01T09:09:43;100066.63;;;7.45;76.19
13241;BME280;6687;47.790;7.322;2023-02-01T09:12:11;100069.25;;;7.19;77.37
13241;BME280;6687;47.790;7.322;2023-02-01T09:14:38;100070.81;;;7.41;76.77
13241;BME280;6687;47.790;7.322;2023-02-01T09:17:04;100073.94;;;7.31;77.18
13241;BME280;6687;47.790;7.322;2023-02-01T09:19:33;100075.09;;;7.41;76.64
13241;BME280;6687;47.790;7.322;2023-02-01T09:21:59;100078.41;;;7.36;76.53
13241;BME280;6687;47.790;7.322;2023-02-01T09:24:26;100082.84;;;7.41;76.84
13241;BME280;6687;47.790;7.322;2023-02-01T09:26:54;100086.44;;;7.46;76.94
13241;BME280;6687;47.790;7.322;2023-02-01T09:29:20;100091.38;;;7.40;77.38
13241;BME280;6687;47.790;7.322;2023-02-01T09:31:47;100079.34;;;7.13;78.23
13241;BME280;6687;47.790;7.322;2023-02-01T09:34:14;100069.63;;;7.31;77.83
13241;BME280;6687;47.790;7.322;2023-02-01T09:36:42;100061.28;;;7.39;77.32
13241;BME280;6687;47.790;7.322;2023-02-01T09:39:09;100067.97;;;7.33;77.29
13241;BME280;6687;47.790;7.322;2023-02-01T09:41:43;100075.31;;;7.47;77.64
13241;BME280;6687;47.790;7.322;2023-02-01T09:44:25;100070.47;;;7.30;77.92
13241;BME280;6687;47.790;7.322;2023-02-01T09:46:58;100067.50;;;7.45;77.29
13241;BME280;6687;47.790;7.322;2023-02-01T09:49:28;100054.66;;;7.47;77.29
13241;BME280;6687;47.790;7.322;2023-02-01T09:51:59;100063.53;;;7.55;77.09
13241;BME280;6687;47.790;7.322;2023-02-01T09:54:29;100062.25;;;7.69;76.60
13241;BME280;6687;47.790;7.322;2023-02-01T09:57:08;100064.06;;;7.72;76.30
13241;BME280;6687;47.790;7.322;2023-02-01T09:59:40;100057.97;;;7.70;76.27
13241;BME280;6687;47.790;7.322;2023-02-01T10:02:12;100062.41;;;7.74;75.88
13241;BME280;6687;47.790;7.322;2023-02-01T10:04:41;100063.66;;;7.87;76.36
13241;BME280;6687;47.790;7.322;2023-02-01T10:07:20;100062.97;;;7.92;76.16
13241;BME280;6687;47.790;7.322;2023-02-01T10:10:00;100068.94;;;7.91;76.35
13241;BME280;6687;47.790;7.322;2023-02-01T10:15:45;100082.94;;;7.98;77.38
13241;BME280;6687;47.790;7.322;2023-02-01T10:18:28;100068.94;;;7.91;76.95
13241;BME280;6687;47.790;7.322;2023-02-01T10:21:04;100077.03;;;8.02;76.99
13241;BME280;6687;47.790;7.322;2023-02-01T10:23:48;100064.56;;;7.89;78.94
13241;BME280;6687;47.790;7.322;2023-02-01T10:26:20;100052.94;;;8.03;77.27
13241;BME280;6687;47.790;7.322;2023-02-01T10:28:51;100047.72;;;8.00;78.04
13241;BME280;6687;47.790;7.322;2023-02-01T10:31:21;100051.03;;;7.96;78.32
13241;BME280;6687;47.790;7.322;2023-02-01T10:33:52;100066.22;;;7.87;80.93
13241;BME280;6687;47.790;7.322;2023-02-01T10:36:28;100064.38;;;7.83;80.00
13241;BME280;6687;47.790;7.322;2023-02-01T10:38:58;100062.91;;;7.91;79.22
13241;BME280;6687;47.790;7.322;2023-02-01T10:41:31;100068.81;;;7.87;79.53
13241;BME280;6687;47.790;7.322;2023-02-01T10:44:02;100077.03;;;8.02;78.66
13241;BME280;6687;47.790;7.322;2023-02-01T10:46:31;100071.53;;;7.91;78.99
13241;BME280;6687;47.790;7.322;2023-02-01T10:49:02;100070.56;;;8.16;77.64
13241;BME280;6687;47.790;7.322;2023-02-01T10:51:39;100077.47;;;8.17;77.43
13241;BME280;6687;47.790;7.322;2023-02-01T10:54:16;100069.44;;;8.37;76.62
13241;BME280;6687;47.790;7.322;2023-02-01T10:56:46;100067.75;;;8.09;76.53
13241;BME280;6687;47.790;7.322;2023-02-01T10:59:15;100067.09;;;8.45;76.05
13241;BME280;6687;47.790;7.322;2023-02-01T11:01:45;100062.28;;;8.57;75.94
13241;BME280;6687;47.790;7.322;2023-02-01T11:04:14;100064.56;;;8.46;75.95
13241;BME280;6687;47.790;7.322;2023-02-01T11:06:44;100053.16;;;8.40;76.18
13241;BME280;6687;47.790;7.322;2023-02-01T11:09:18;100044.72;;;8.44;75.54
13241;BME280;6687;47.790;7.322;2023-02-01T11:11:55;100049.97;;;8.20;75.09
13241;BME280;6687;47.790;7.322;2023-02-01T11:14:30;100048.44;;;8.55;75.64
13241;BME280;6687;47.790;7.322;2023-02-01T11:17:01;100044.56;;;8.71;75.11
13241;BME280;6687;47.790;7.322;2023-02-01T11:19:29;100044.41;;;8.65;75.03
13241;BME280;6687;47.790;7.322;2023-02-01T11:21:59;100036.06;;;8.75;75.25
13241;BME280;6687;47.790;7.322;2023-02-01T11:24:31;100034.84;;;8.94;74.49
13241;BME280;6687;47.790;7.322;2023-02-01T11:27:02;100020.66;;;8.78;74.81
13241;BME280;6687;47.790;7.322;2023-02-01T11:29:34;100028.81;;;8.95;74.44
13241;BME280;6687;47.790;7.322;2023-02-01T11:32:03;100023.03;;;9.04;74.12
13241;BME280;6687;47.790;7.322;2023-02-01T11:34:37;100023.25;;;9.13;73.68
13241;BME280;6687;47.790;7.322;2023-02-01T11:37:15;100017.28;;;9.15;73.75
13241;BME280;6687;47.790;7.322;2023-02-01T11:39:53;100014.66;;;9.14;73.80
13241;BME280;6687;47.790;7.322;2023-02-01T11:42:22;100011.22;;;9.15;73.66
13241;BME280;6687;47.790;7.322;2023-02-01T11:44:50;100014.28;;;8.99;73.48
13241;BME280;6687;47.790;7.322;2023-02-01T11:47:24;100018.56;;;8.98;73.93
13241;BME280;6687;47.790;7.322;2023-02-01T11:49:53;100012.94;;;9.14;73.27
13241;BME280;6687;47.790;7.322;2023-02-01T11:52:39;100004.47;;;9.20;73.20
13241;BME280;6687;47.790;7.322;2023-02-01T11:55:33;99998.47;;;9.23;73.40
13241;BME280;6687;47.790;7.322;2023-02-01T11:58:15;100004.16;;;9.08;73.64
13241;BME280;6687;47.790;7.322;2023-02-01T12:01:01;100002.56;;;9.13;73.68
13241;BME280;6687;47.790;7.322;2023-02-01T12:06:28;100009.19;;;9.02;72.23
13241;BME280;6687;47.790;7.322;2023-02-01T12:09:11;100000.81;;;9.12;73.03
13241;BME280;6687;47.790;7.322;2023-02-01T12:11:51;99999.31;;;8.87;71.17
13241;BME280;6687;47.790;7.322;2023-02-01T12:14:43;99993.84;;;9.08;73.13
13241;BME280;6687;47.790;7.322;2023-02-01T12:20:23;99982.19;;;9.25;72.30
13241;BME280;6687;47.790;7.322;2023-02-01T12:23:09;99983.06;;;9.26;71.83
13241;BME280;6687;47.790;7.322;2023-02-01T12:25:56;99996.78;;;9.23;72.31
13241;BME280;6687;47.790;7.322;2023-02-01T12:28:44;99986.75;;;9.01;72.02
13241;BME280;6687;47.790;7.322;2023-02-01T12:31:34;99976.03;;;9.20;70.37
13241;BME280;6687;47.790;7.322;2023-02-01T12:37:09;99996.94;;;8.94;69.12
13241;BME280;6687;47.790;7.322;2023-02-01T12:39:47;100004.69;;;8.94;69.82
13241;BME280;6687;47.790;7.322;2023-02-01T12:42:23;99994.34;;;9.29;71.64
13241;BME280;6687;47.790;7.322;2023-02-01T12:44:56;100003.16;;;9.03;69.97
13241;BME280;6687;47.790;7.322;2023-02-01T12:47:31;99984.66;;;9.21;70.38
13241;BME280;6687;47.790;7.322;2023-02-01T12:50:03;99976.13;;;9.23;70.92
13241;BME280;6687;47.790;7.322;2023-02-01T12:52:36;99972.72;;;9.26;71.90
13241;BME280;6687;47.790;7.322;2023-02-01T12:55:14;99960.88;;;9.35;71.85
13241;BME280;6687;47.790;7.322;2023-02-01T12:57:47;99955.84;;;9.42;71.71
13241;BME280;6687;47.790;7.322;2023-02-01T13:00:24;99947.41;;;9.50;71.25
13241;BME280;6687;47.790;7.322;2023-02-01T13:03:00;99941.16;;;9.41;71.21
13241;BME280;6687;47.790;7.322;2023-02-01T13:05:35;99947.25;;;9.44;71.23
13241;BME280;6687;47.790;7.322;2023-02-01T13:08:07;99949.88;;;9.46;70.81
13241;BME280;6687;47.790;7.322;2023-02-01T13:10:40;99944.63;;;9.43;71.16
13241;BME280;6687;47.790;7.322;2023-02-01T13:13:14;99940.97;;;9.31;68.78
13241;BME280;6687;47.790;7.322;2023-02-01T13:15:48;99947.84;;;9.32;68.92
13241;BME280;6687;47.790;7.322;2023-02-01T13:18:18;99932.56;;;9.42;70.91
13241;BME280;6687;47.790;7.322;2023-02-01T13:20:51;99936.09;;;9.47;70.85
13241;BME280;6687;47.790;7.322;2023-02-01T13:23:26;99930.53;;;9.28;69.84
13241;BME280;6687;47.790;7.322;2023-02-01T13:25:55;99931.69;;;9.05;67.39
13241;BME280;6687;47.790;7.322;2023-02-01T13:28:26;99928.56;;;9.18;69.99
13241;BME280;6687;47.790;7.322;2023-02-01T13:31:27;99928.22;;;9.41;69.99
13241;BME280;6687;47.790;7.322;2023-02-01T13:34:26;99929.19;;;9.46;70.92
13241;BME280;6687;47.790;7.322;2023-02-01T13:37:05;99931.22;;;9.59;70.58
13241;BME280;6687;47.790;7.322;2023-02-01T13:39:48;99927.56;;;9.51;70.61
13241;BME280;6687;47.790;7.322;2023-02-01T13:42:21;99925.63;;;9.39;69.89
13241;BME280;6687;47.790;7.322;2023-02-01T13:44:52;99917.09;;;9.05;67.07
13241;BME280;6687;47.790;7.322;2023-02-01T13:47:27;99917.16;;;9.48;69.11
13241;BME280;6687;47.790;7.322;2023-02-01T13:49:57;99912.34;;;9.63;69.83
13241;BME280;6687;47.790;7.322;2023-02-01T13:52:37;99919.06;;;9.55;70.52
13241;BME280;6687;47.790;7.322;2023-02-01T13:55:27;99930.88;;;9.44;68.89
13241;BME280;6687;47.790;7.322;2023-02-01T13:58:18;99933.38;;;9.39;66.80
13241;BME280;6687;47.790;7.322;2023-02-01T14:00:47;99934.72;;;9.61;70.08
13241;BME280;6687;47.790;7.322;2023-02-01T14:03:22;99951.19;;;9.66;69.90
13241;BME280;6687;47.790;7.322;2023-02-01T14:06:14;99943.84;;;9.45;70.69
13241;BME280;6687;47.790;7.322;2023-02-01T14:08:46;99959.75;;;9.24;68.64
13241;BME280;6687;47.790;7.322;2023-02-01T14:11:35;99968.03;;;9.11;67.55
13241;BME280;6687;47.790;7.322;2023-02-01T14:17:39;99967.34;;;8.83;67.22
13241;BME280;6687;47.790;7.322;2023-02-01T14:23:37;99973.22;;;9.11;70.64
13241;BME280;6687;47.790;7.322;2023-02-01T14:26:12;99959.16;;;8.65;67.37
13241;BME280;6687;47.790;7.322;2023-02-01T14:28:43;99967.44;;;8.86;68.48
13241;BME280;6687;47.790;7.322;2023-02-01T14:31:18;99978.09;;;8.99;68.00
13241;BME280;6687;47.790;7.322;2023-02-01T14:33:55;99956.41;;;8.92;69.28
13241;BME280;6687;47.790;7.322;2023-02-01T14:36:25;99968.72;;;8.69;68.49
13241;BME280;6687;47.790;7.322;2023-02-01T14:39:22;99965.66;;;8.50;66.65
13241;BME280;6687;47.790;7.322;2023-02-01T14:41:54;99981.38;;;8.58;67.57
13241;BME280;6687;47.790;7.322;2023-02-01T14:44:32;99979.78;;;8.63;66.92
13241;BME280;6687;47.790;7.322;2023-02-01T14:47:26;99965.78;;;8.88;69.66
13241;BME280;6687;47.790;7.322;2023-02-01T14:49:59;99976.00;;;8.84;68.68
13241;BME280;6687;47.790;7.322;2023-02-01T14:52:34;99963.72;;;8.75;68.53
13241;BME280;6687;47.790;7.322;2023-02-01T14:55:11;99963.44;;;8.98;70.11
13241;BME280;6687;47.790;7.322;2023-02-01T14:57:43;99952.75;;;8.85;67.67
13241;BME280;6687;47.790;7.322;2023-02-01T15:00:19;99953.00;;;8.94;69.43
13241;BME280;6687;47.790;7.322;2023-02-01T15:02:49;99965.00;;;8.58;67.99
13241;BME280;6687;47.790;7.322;2023-02-01T15:05:27;99974.28;;;8.84;68.62
13241;BME280;6687;47.790;7.322;2023-02-01T15:08:00;99977.22;;;8.65;67.82
13241;BME280;6687;47.790;7.322;2023-02-01T15:10:33;99973.47;;;8.87;70.61
13241;BME280;6687;47.790;7.322;2023-02-01T15:13:18;99966.53;;;8.51;67.69
13241;BME280;6687;47.790;7.322;2023-02-01T15:16:01;99964.47;;;8.71;66.89
13241;BME280;6687;47.790;7.322;2023-02-01T15:18:29;99968.97;;;8.78;69.98
13241;BME280;6687;47.790;7.322;2023-02-01T15:20:57;99965.75;;;8.22;68.41
13241;BME280;6687;47.790;7.322;2023-02-01T15:23:25;99956.56;;;8.65;71.24
13241;BME280;6687;47.790;7.322;2023-02-01T15:25:54;99951.97;;;8.23;68.22
13241;BME280;6687;47.790;7.322;2023-02-01T15:28:22;99966.13;;;8.37;68.24
13241;BME280;6687;47.790;7.322;2023-02-01T15:30:54;99979.31;;;8.78;70.57
13241;BME280;6687;47.790;7.322;2023-02-01T15:33:22;99981.97;;;8.48;70.68
13241;BME280;6687;47.790;7.322;2023-02-01T15:35:50;99987.66;;;8.36;70.24
13241;BME280;6687;47.790;7.322;2023-02-01T15:38:31;99980.50;;;8.58;70.48
13241;BME280;6687;47.790;7.322;2023-02-01T15:41:03;99994.25;;;8.56;70.26
13241;BME280;6687;47.790;7.322;2023-02-01T15:43:34;99977.38;;;8.71;72.12
13241;BME280;6687;47.790;7.322;2023-02-01T15:46:06;99985.69;;;8.92;72.14
13241;BME280;6687;47.790;7.322;2023-02-01T15:48:38;99994.09;;;8.50;70.43
13241;BME280;6687;47.790;7.322;2023-02-01T15:51:06;99989.22;;;8.63;70.62
13241;BME280;6687;47.790;7.322;2023-02-01T15:53:38;99993.97;;;8.47;70.03
13241;BME280;6687;47.790;7.322;2023-02-01T15:56:12;99998.22;;;8.45;69.98
13241;BME280;6687;47.790;7.322;2023-02-01T15:58:42;99994.66;;;8.72;72.23
13241;BME280;6687;47.790;7.322;2023-02-01T16:01:12;100002.22;;;8.34;68.94
13241;BME280;6687;47.790;7.322;2023-02-01T16:03:42;100000.47;;;8.65;71.26
13241;BME280;6687;47.790;7.322;2023-02-01T16:06:12;100010.00;;;8.66;72.28
13241;BME280;6687;47.790;7.322;2023-02-01T16:08:55;100020.22;;;8.63;71.64
13241;BME280;6687;47.790;7.322;2023-02-01T16:11:30;100022.97;;;8.07;70.22
13241;BME280;6687;47.790;7.322;2023-02-01T16:13:57;100025.75;;;8.14;71.01
13241;BME280;6687;47.790;7.322;2023-02-01T16:16:24;100034.69;;;8.26;72.01
13241;BME280;6687;47.790;7.322;2023-02-01T16:18:51;100028.94;;;7.77;72.37
13241;BME280;6687;47.790;7.322;2023-02-01T16:21:19;100025.31;;;7.99;74.15
13241;BME280;6687;47.790;7.322;2023-02-01T16:23:49;100020.41;;;7.78;74.95
13241;BME280;6687;47.790;7.322;2023-02-01T16:26:17;100017.16;;;7.56;74.65
13241;BME280;6687;47.790;7.322;2023-02-01T16:28:46;100017.41;;;7.64;75.09
13241;BME280;6687;47.790;7.322;2023-02-01T16:31:15;100017.47;;;7.67;75.33
13241;BME280;6687;47.790;7.322;2023-02-01T16:33:47;100023.38;;;7.63;75.50
13241;BME280;6687;47.790;7.322;2023-02-01T16:36:16;100015.13;;;7.19;74.14
13241;BME280;6687;47.790;7.322;2023-02-01T16:38:44;100017.88;;;7.25;74.25
13241;BME280;6687;47.790;7.322;2023-02-01T16:41:14;100027.06;;;7.71;75.60
13241;BME280;6687;47.790;7.322;2023-02-01T16:43:42;100020.91;;;7.68;75.01
13241;BME280;6687;47.790;7.322;2023-02-01T16:46:14;100023.09;;;7.83;75.73
13241;BME280;6687;47.790;7.322;2023-02-01T16:48:44;100021.81;;;7.97;76.24
13241;BME280;6687;47.790;7.322;2023-02-01T16:51:14;100038.03;;;7.93;76.00
13241;BME280;6687;47.790;7.322;2023-02-01T16:53:43;100036.63;;;7.47;75.07
13241;BME280;6687;47.790;7.322;2023-02-01T16:56:16;100038.22;;;7.70;75.69
13241;BME280;6687;47.790;7.322;2023-02-01T16:58:45;100036.88;;;7.54;75.69
13241;BME280;6687;47.790;7.322;2023-02-01T17:01:16;100040.75;;;7.69;74.96
13241;BME280;6687;47.790;7.322;2023-02-01T17:03:43;100046.56;;;7.90;76.35
13241;BME280;6687;47.790;7.322;2023-02-01T17:06:12;100050.91;;;7.37;74.75
13241;BME280;6687;47.790;7.322;2023-02-01T17:08:41;100054.16;;;7.31;74.37
13241;BME280;6687;47.790;7.322;2023-02-01T17:11:10;100040.59;;;7.93;75.76
13241;BME280;6687;47.790;7.322;2023-02-01T17:13:38;100048.81;;;7.80;74.63
13241;BME280;6687;47.790;7.322;2023-02-01T17:16:19;100058.25;;;7.79;74.72
13241;BME280;6687;47.790;7.322;2023-02-01T17:18:50;100070.94;;;7.46;73.99
13241;BME280;6687;47.790;7.322;2023-02-01T17:21:18;100068.56;;;7.79;75.36
13241;BME280;6687;47.790;7.322;2023-02-01T17:23:45;100073.25;;;7.64;74.49
13241;BME280;6687;47.790;7.322;2023-02-01T17:26:12;100077.53;;;7.63;74.64
13241;BME280;6687;47.790;7.322;2023-02-01T17:28:39;100065.66;;;7.41;74.50
13241;BME280;6687;47.790;7.322;2023-02-01T17:31:05;100074.31;;;7.43;74.52
13241;BME280;6687;47.790;7.322;2023-02-01T17:33:35;100069.44;;;7.80;76.22
13241;BME280;6687;47.790;7.322;2023-02-01T17:36:04;100070.28;;;7.79;75.62
13241;BME280;6687;47.790;7.322;2023-02-01T17:38:31;100069.84;;;7.92;75.50
13241;BME280;6687;47.790;7.322;2023-02-01T17:40:58;100065.75;;;7.71;76.08
13241;BME280;6687;47.790;7.322;2023-02-01T17:43:25;100058.59;;;7.90;76.80
13241;BME280;6687;47.790;7.322;2023-02-01T17:45:54;100066.84;;;7.78;75.76
13241;BME280;6687;47.790;7.322;2023-02-01T17:48:22;100062.28;;;7.98;76.34
13241;BME280;6687;47.790;7.322;2023-02-01T17:50:51;100061.91;;;8.14;76.47
13241;BME280;6687;47.790;7.322;2023-02-01T17:53:23;100062.84;;;7.88;76.18
13241;BME280;6687;47.790;7.322;2023-02-01T17:55:50;100063.28;;;7.74;76.27
13241;BME280;6687;47.790;7.322;2023-02-01T17:58:17;100065.94;;;7.77;76.87
13241;BME280;6687;47.790;7.322;2023-02-01T18:00:45;100067.13;;;7.33;77.60
13241;BME280;6687;47.790;7.322;2023-02-01T18:03:21;100065.28;;;7.56;77.98
13241;BME280;6687;47.790;7.322;2023-02-01T18:05:48;100069.06;;;7.67;77.26
13241;BME280;6687;47.790;7.322;2023-02-01T18:08:20;100054.44;;;7.95;77.40
13241;BME280;6687;47.790;7.322;2023-02-01T18:10:48;100055.59;;;8.05;77.38
13241;BME280;6687;47.790;7.322;2023-02-01T18:13:15;100053.59;;;8.25;76.34
13241;BME280;6687;47.790;7.322;2023-02-01T18:15:42;100059.88;;;8.04;76.33
13241;BME280;6687;47.790;7.322;2023-02-01T18:18:09;100058.28;;;8.09;76.57
13241;BME280;6687;47.790;7.322;2023-02-01T18:20:38;100057.72;;;8.18;76.38
13241;BME280;6687;47.790;7.322;2023-02-01T18:23:11;100066.78;;;8.05;76.37
13241;BME280;6687;47.790;7.322;2023-02-01T18:25:41;100066.09;;;7.55;75.05
13241;BME280;6687;47.790;7.322;2023-02-01T18:28:08;100063.09;;;7.97;76.98
13241;BME280;6687;47.790;7.322;2023-02-01T18:30:35;100061.53;;;8.02;76.31
13241;BME280;6687;47.790;7.322;2023-02-01T18:33:02;100061.16;;;8.19;75.54
13241;BME280;6687;47.790;7.322;2023-02-01T18:35:30;100051.84;;;7.66;74.97
13241;BME280;6687;47.790;7.322;2023-02-01T18:37:57;100054.25;;;7.89;74.65
13241;BME280;6687;47.790;7.322;2023-02-01T18:40:26;100074.94;;;7.90;76.13
13241;BME280;6687;47.790;7.322;2023-02-01T18:42:55;100074.34;;;7.99;75.89
13241;BME280;6687;47.790;7.322;2023-02-01T18:45:28;100072.09;;;8.10;75.52
13241;BME280;6687;47.790;7.322;2023-02-01T18:47:55;100087.44;;;8.05;76.14
13241;BME280;6687;47.790;7.322;2023-02-01T18:50:22;100077.84;;;8.01;75.65
13241;BME280;6687;47.790;7.322;2023-02-01T18:52:54;100087.38;;;7.75;74.82
13241;BME280;6687;47.790;7.322;2023-02-01T18:55:22;100096.31;;;7.59;74.46
13241;BME280;6687;47.790;7.322;2023-02-01T18:57:49;100094.59;;;7.58;73.14
13241;BME280;6687;47.790;7.322;2023-02-01T19:00:18;100095.72;;;7.41;73.23
13241;BME280;6687;47.790;7.322;2023-02-01T19:02:47;100099.81;;;7.61;74.66
13241;BME280;6687;47.790;7.322;2023-02-01T19:05:15;100096.25;;;7.56;75.00
13241;BME280;6687;47.790;7.322;2023-02-01T19:07:44;100097.22;;;6.84;75.30
13241;BME280;6687;47.790;7.322;2023-02-01T19:10:14;100099.75;;;7.07;76.88
13241;BME280;6687;47.790;7.322;2023-02-01T19:12:41;100097.19;;;7.32;77.59
13241;BME280;6687;47.790;7.322;2023-02-01T19:15:10;100090.47;;;7.12;77.90
13241;BME280;6687;47.790;7.322;2023-02-01T19:17:43;100091.81;;;7.01;78.27
13241;BME280;6687;47.790;7.322;2023-02-01T19:20:11;100091.28;;;6.85;80.21
13241;BME280;6687;47.790;7.322;2023-02-01T19:22:38;100096.34;;;7.33;78.64
13241;BME280;6687;47.790;7.322;2023-02-01T19:25:06;100102.13;;;7.01;78.04
13241;BME280;6687;47.790;7.322;2023-02-01T19:27:33;100105.13;;;7.13;77.46
13241;BME280;6687;47.790;7.322;2023-02-01T19:30:00;100112.31;;;6.97;78.54
13241;BME280;6687;47.790;7.322;2023-02-01T19:32:27;100111.72;;;7.05;79.29
13241;BME280;6687;47.790;7.322;2023-02-01T19:34:56;100107.09;;;6.96;79.97
13241;BME280;6687;47.790;7.322;2023-02-01T19:37:23;100092.41;;;6.93;79.98
13241;BME280;6687;47.790;7.322;2023-02-01T19:39:50;100096.53;;;6.88;79.59
13241;BME280;6687;47.790;7.322;2023-02-01T19:42:17;100096.22;;;6.79;79.28
13241;BME280;6687;47.790;7.322;2023-02-01T19:44:44;100093.31;;;6.70;80.35
13241;BME280;6687;47.790;7.322;2023-02-01T19:47:11;100105.81;;;6.83;79.08
13241;BME280;6687;47.790;7.322;2023-02-01T19:49:38;100102.09;;;6.75;79.42
13241;BME280;6687;47.790;7.322;2023-02-01T19:52:06;100109.66;;;6.48;79.26
13241;BME280;6687;47.790;7.322;2023-02-01T19:54:33;100117.56;;;6.52;78.82
13241;BME280;6687;47.790;7.322;2023-02-01T19:56:59;100129.28;;;6.22;78.99
13241;BME280;6687;47.790;7.322;2023-02-01T19:59:26;100134.66;;;6.50;78.08
13241;BME280;6687;47.790;7.322;2023-02-01T20:01:53;100138.88;;;6.48;78.42
13241;BME280;6687;47.790;7.322;2023-02-01T20:04:20;100135.59;;;6.30;78.74
13241;BME280;6687;47.790;7.322;2023-02-01T20:06:48;100122.78;;;6.78;79.50